createdAt,value
2022-11-05T00:02:25.273Z,14.89
2022-11-05T00:05:16.122Z,14.85
2022-11-05T00:08:10.255Z,14.79
2022-11-05T00:10:42.680Z,14.98
2022-11-05T00:13:34.980Z,15.08
2022-11-05T00:16:42.360Z,15.10
2022-11-05T00:19:15.043Z,15.05
2022-11-05T00:22:05.880Z,15.01
2022-11-05T00:24:56.710Z,15.09
2022-11-05T00:27:28.980Z,15.02
2022-11-05T00:30:01.299Z,15.06
2022-11-05T00:32:34.154Z,15.17
2022-11-05T00:35:08.411Z,15.22
2022-11-05T00:37:44.341Z,15.19
2022-11-05T00:40:19.751Z,15.28
2022-11-05T00:43:10.922Z,15.36
2022-11-05T00:45:43.955Z,15.34
2022-11-05T00:48:35.288Z,15.31
2022-11-05T00:51:08.334Z,15.37
2022-11-05T00:53:40.586Z,15.42
2022-11-05T00:56:13.044Z,15.43
2022-11-05T00:58:45.568Z,15.37
2022-11-05T01:01:18.037Z,15.37
2022-11-05T01:03:51.872Z,15.32
2022-11-05T01:06:24.818Z,15.31
2022-11-05T01:08:57.234Z,15.20
2022-11-05T01:11:37.115Z,15.13
2022-11-05T01:14:12.973Z,15.05
2022-11-05T01:16:45.581Z,15.05
2022-11-05T01:19:18.020Z,14.97
2022-11-05T01:21:50.310Z,14.96
2022-11-05T01:24:22.599Z,15.01
2022-11-05T01:26:54.817Z,15.21
2022-11-05T01:29:27.062Z,15.32
2022-11-05T01:31:59.322Z,15.11
2022-11-05T01:34:31.657Z,15.20
2022-11-05T01:37:04.394Z,15.32
2022-11-05T01:39:36.711Z,15.39
2022-11-05T01:42:32.776Z,15.43
2022-11-05T01:45:12.513Z,15.45
2022-11-05T01:47:59.978Z,15.40
2022-11-05T01:50:47.515Z,15.20
2022-11-05T01:53:27.796Z,15.25
2022-11-05T01:56:08.846Z,15.29
2022-11-05T01:59:00.178Z,15.43
2022-11-05T02:01:33.058Z,15.39
2022-11-05T02:04:17.183Z,15.50
2022-11-05T02:06:49.458Z,15.49
2022-11-05T02:09:27.411Z,15.66
2022-11-05T02:11:59.648Z,15.63
2022-11-05T02:14:31.906Z,15.68
2022-11-05T02:17:26.921Z,15.74
2022-11-05T02:20:15.170Z,15.56
2022-11-05T02:23:46.138Z,15.64
2022-11-05T02:27:13.512Z,15.57
2022-11-05T02:30:03.227Z,15.74
2022-11-05T02:32:55.699Z,15.74
2022-11-05T02:35:49.880Z,15.68
2022-11-05T02:38:43.344Z,15.69
2022-11-05T02:41:48.079Z,15.72
2022-11-05T02:44:41.844Z,15.64
2022-11-05T02:47:47.814Z,15.32
2022-11-05T02:50:44.432Z,15.27
2022-11-05T02:53:34.305Z,14.97
2022-11-05T02:56:18.684Z,14.82
2022-11-05T02:58:51.139Z,14.82
2022-11-05T03:01:23.573Z,15.00
2022-11-05T03:04:02.216Z,15.06
2022-11-05T03:07:24.560Z,15.14
2022-11-05T03:10:38.220Z,15.10
2022-11-05T03:13:28.003Z,15.16
2022-11-05T03:16:15.953Z,15.19
2022-11-05T03:19:17.859Z,14.91
2022-11-05T03:22:14.693Z,15.14
2022-11-05T03:24:52.903Z,15.19
2022-11-05T03:27:31.854Z,15.06
2022-11-05T03:30:09.753Z,14.89
2022-11-05T03:32:53.925Z,15.11
2022-11-05T03:35:36.519Z,14.93
2022-11-05T03:38:28.277Z,15.05
2022-11-05T03:41:05.603Z,15.09
2022-11-05T03:43:43.146Z,15.12
2022-11-05T03:46:45.572Z,15.07
2022-11-05T03:49:27.892Z,15.28
2022-11-05T03:52:16.127Z,15.21
2022-11-05T03:54:48.583Z,15.23
2022-11-05T03:57:32.956Z,15.09
2022-11-05T04:00:09.560Z,15.26
2022-11-05T04:02:42.753Z,15.23
2022-11-05T04:05:15.213Z,15.21
2022-11-05T04:08:09.972Z,15.22
2022-11-05T04:11:05.593Z,15.04
2022-11-05T04:13:37.928Z,15.02
2022-11-05T04:16:28.773Z,15.12
2022-11-05T04:19:01.030Z,14.85
2022-11-05T04:21:53.236Z,15.02
2022-11-05T04:24:25.545Z,14.88
2022-11-05T04:26:57.818Z,14.73
2022-11-05T04:29:48.923Z,14.68
2022-11-05T04:32:21.214Z,14.39
2022-11-05T04:34:53.490Z,14.48
2022-11-05T04:37:25.967Z,14.38
2022-11-05T04:39:58.346Z,14.50
2022-11-05T04:42:30.669Z,14.67
2022-11-05T04:45:03.089Z,14.52
2022-11-05T04:47:35.418Z,14.47
2022-11-05T04:50:10.548Z,14.54
2022-11-05T04:52:43.332Z,14.55
2022-11-05T04:55:16.169Z,14.51
2022-11-05T04:57:50.780Z,14.50
2022-11-05T05:00:24.733Z,14.52
2022-11-05T05:02:57.118Z,14.41
2022-11-05T05:05:30.702Z,14.46
2022-11-05T05:08:05.073Z,14.46
2022-11-05T05:10:37.342Z,14.38
2022-11-05T05:13:12.550Z,14.51
2022-11-05T05:15:44.996Z,14.53
2022-11-05T05:18:17.342Z,14.17
2022-11-05T05:21:08.025Z,14.47
2022-11-05T05:23:40.342Z,14.51
2022-11-05T05:26:12.644Z,14.63
2022-11-05T05:28:44.944Z,14.46
2022-11-05T05:31:17.259Z,14.39
2022-11-05T05:33:49.806Z,14.63
2022-11-05T05:36:23.820Z,14.71
2022-11-05T05:38:56.173Z,14.68
2022-11-05T05:41:29.338Z,14.39
2022-11-05T05:44:01.688Z,14.49
2022-11-05T05:46:34.199Z,14.52
2022-11-05T05:49:12.048Z,14.28
2022-11-05T05:51:44.732Z,14.45
2022-11-05T05:54:17.365Z,14.43
2022-11-05T05:56:50.092Z,14.10
2022-11-05T05:59:22.491Z,14.39
2022-11-05T06:01:54.978Z,14.57
2022-11-05T06:04:27.774Z,14.45
2022-11-05T06:07:00.075Z,14.47
2022-11-05T06:09:32.404Z,14.33
2022-11-05T06:12:05.096Z,14.37
2022-11-05T06:14:37.436Z,14.44
2022-11-05T06:17:09.865Z,14.27
2022-11-05T06:19:42.313Z,14.18
2022-11-05T06:22:14.775Z,14.23
2022-11-05T06:24:47.210Z,14.29
2022-11-05T06:27:19.598Z,14.00
2022-11-05T06:29:52.038Z,13.88
2022-11-05T06:32:24.883Z,13.95
2022-11-05T06:34:57.624Z,14.01
2022-11-05T06:37:33.913Z,13.98
2022-11-05T06:40:07.621Z,13.87
2022-11-05T06:42:42.314Z,14.08
2022-11-05T06:45:14.769Z,14.14
2022-11-05T06:47:47.171Z,14.19
2022-11-05T06:50:19.588Z,13.97
2022-11-05T06:53:10.504Z,14.22
2022-11-05T06:55:45.065Z,14.17
2022-11-05T06:58:17.650Z,14.16
2022-11-05T07:00:50.124Z,14.15
2022-11-05T07:03:22.657Z,14.29
2022-11-05T07:06:00.145Z,14.11
2022-11-05T07:08:37.728Z,14.26
2022-11-05T07:11:10.184Z,14.03
2022-11-05T07:13:42.605Z,14.16
2022-11-05T07:16:15.144Z,14.25
2022-11-05T07:18:47.610Z,14.18
2022-11-05T07:21:20.058Z,14.50
2022-11-05T07:23:52.623Z,14.91
2022-11-05T07:26:26.076Z,14.85
2022-11-05T07:29:00.735Z,14.83
2022-11-05T07:31:33.335Z,14.50
2022-11-05T07:34:05.734Z,14.52
2022-11-05T07:36:39.591Z,14.74
2022-11-05T07:39:11.988Z,14.94
2022-11-05T07:41:44.532Z,14.86
2022-11-05T07:44:17.749Z,14.76
2022-11-05T07:46:53.292Z,14.72
2022-11-05T07:49:26.246Z,14.74
2022-11-05T07:51:58.769Z,14.47
2022-11-05T07:54:31.249Z,14.48
2022-11-05T07:57:03.598Z,14.72
2022-11-05T07:59:36.070Z,14.65
2022-11-05T08:02:11.687Z,14.57
2022-11-05T08:04:44.350Z,14.65
2022-11-05T08:07:16.809Z,14.43
2022-11-05T08:09:49.490Z,13.74
2022-11-05T08:12:21.870Z,14.05
2022-11-05T08:14:54.364Z,13.91
2022-11-05T08:17:26.993Z,13.48
2022-11-05T08:19:59.615Z,13.38
2022-11-05T08:22:32.080Z,13.48
2022-11-05T08:25:06.982Z,13.68
2022-11-05T08:27:41.095Z,13.57
2022-11-05T08:30:13.885Z,13.44
2022-11-05T08:32:46.297Z,13.26
2022-11-05T08:35:20.330Z,13.19
2022-11-05T08:38:03.033Z,13.13
2022-11-05T08:40:37.197Z,12.94
2022-11-05T08:43:13.367Z,13.03
2022-11-05T08:45:46.277Z,13.28
2022-11-05T08:48:19.918Z,13.50
2022-11-05T08:50:52.482Z,13.84
2022-11-05T08:53:25.070Z,14.12
2022-11-05T08:56:00.727Z,14.10
2022-11-05T08:58:33.628Z,14.16
2022-11-05T09:01:06.438Z,13.87
2022-11-05T09:03:39.269Z,13.67
2022-11-05T09:06:11.764Z,13.75
2022-11-05T09:08:44.563Z,13.97
2022-11-05T09:11:18.434Z,14.00
2022-11-05T09:13:50.908Z,14.00
2022-11-05T09:16:26.126Z,13.81
2022-11-05T09:18:58.584Z,13.96
2022-11-05T09:21:31.451Z,13.85
2022-11-05T09:24:04.759Z,14.00
2022-11-05T09:26:37.663Z,13.81
2022-11-05T09:29:14.235Z,14.24
2022-11-05T09:31:47.138Z,14.18
2022-11-05T09:34:19.647Z,14.25
2022-11-05T09:36:52.117Z,14.12
2022-11-05T09:39:24.968Z,14.13
2022-11-05T09:42:07.347Z,14.18
2022-11-05T09:45:04.602Z,14.17
2022-11-05T09:47:43.551Z,14.55
2022-11-05T09:50:25.553Z,14.46
2022-11-05T09:52:58.818Z,14.47
2022-11-05T09:55:49.246Z,14.92
2022-11-05T09:59:07.178Z,14.84
2022-11-05T10:04:21.861Z,15.44
2022-11-05T10:07:00.839Z,15.20
2022-11-05T10:09:47.875Z,14.90
2022-11-05T10:12:48.142Z,15.07
2022-11-05T10:15:24.794Z,15.21
2022-11-05T10:18:04.524Z,15.44
2022-11-05T10:20:39.207Z,15.38
2022-11-05T10:23:18.679Z,15.37
2022-11-05T10:26:10.189Z,15.43
2022-11-05T10:28:42.551Z,15.03
2022-11-05T10:31:21.107Z,14.93
2022-11-05T10:34:02.704Z,15.07
2022-11-05T10:36:38.015Z,15.32
2022-11-05T10:39:15.043Z,15.44
2022-11-05T10:42:22.458Z,15.56
2022-11-05T10:45:38.582Z,15.48
2022-11-05T10:48:52.200Z,15.31
2022-11-05T10:51:25.093Z,15.43
2022-11-05T10:54:03.101Z,16.11
2022-11-05T10:56:41.291Z,16.42
2022-11-05T10:59:28.993Z,16.35
2022-11-05T11:02:18.260Z,16.11
2022-11-05T11:04:58.418Z,16.01
2022-11-05T11:07:31.202Z,15.68
2022-11-05T11:10:04.302Z,15.82
2022-11-05T11:12:44.218Z,15.61
2022-11-05T11:15:27.455Z,15.58
2022-11-05T11:18:00.290Z,16.00
2022-11-05T11:20:33.657Z,16.10
2022-11-05T11:23:13.977Z,15.90
2022-11-05T11:26:02.249Z,16.38
2022-11-05T11:28:47.181Z,16.90
2022-11-05T11:31:26.009Z,17.35
2022-11-05T11:34:04.686Z,18.04
2022-11-05T11:36:46.275Z,18.98
2022-11-05T11:39:25.165Z,19.68
2022-11-05T11:42:05.674Z,20.18
2022-11-05T11:44:44.976Z,19.48
2022-11-05T11:47:21.220Z,18.81
2022-11-05T11:50:01.160Z,18.76
2022-11-05T11:52:36.985Z,18.15
2022-11-05T11:55:12.383Z,17.17
2022-11-05T11:57:54.692Z,16.78
2022-11-05T12:00:27.278Z,17.42
2022-11-05T12:03:41.286Z,17.52
2022-11-05T12:06:41.384Z,17.44
2022-11-05T12:09:44.421Z,17.08
2022-11-05T12:12:23.011Z,17.43
2022-11-05T12:15:23.136Z,17.33
2022-11-05T12:18:07.715Z,17.42
2022-11-05T12:21:07.639Z,18.29
2022-11-05T12:24:21.025Z,18.72
2022-11-05T12:27:47.813Z,19.45
2022-11-05T12:30:22.107Z,19.77
2022-11-05T12:33:26.805Z,20.32
2022-11-05T12:36:28.657Z,20.38
2022-11-05T12:39:42.831Z,19.92
2022-11-05T12:42:42.852Z,19.56
2022-11-05T12:45:36.597Z,19.41
2022-11-05T12:48:43.151Z,18.98
2022-11-05T12:51:28.470Z,19.03
2022-11-05T12:54:40.924Z,19.23
2022-11-05T12:57:15.618Z,19.25
2022-11-05T13:00:02.472Z,18.70
2022-11-05T13:02:47.883Z,17.56
2022-11-05T13:06:06.115Z,17.23
2022-11-05T13:08:46.792Z,17.34
2022-11-05T13:11:40.881Z,17.12
2022-11-05T13:14:22.623Z,16.48
2022-11-05T13:17:01.306Z,16.98
2022-11-05T13:19:46.971Z,16.80
2022-11-05T13:22:40.323Z,16.50
2022-11-05T13:25:29.240Z,16.64
2022-11-05T13:28:28.771Z,16.61
2022-11-05T13:31:05.996Z,16.11
2022-11-05T13:33:43.128Z,16.34
2022-11-05T13:36:44.942Z,15.79
2022-11-05T13:39:57.689Z,16.43
2022-11-05T13:42:38.871Z,16.20
2022-11-05T13:45:29.807Z,16.06
2022-11-05T13:48:34.548Z,16.34
2022-11-05T13:51:40.288Z,16.04
2022-11-05T13:54:55.863Z,15.65
2022-11-05T13:57:31.164Z,16.09
2022-11-05T14:00:27.427Z,15.84
2022-11-05T14:03:20.002Z,15.85
2022-11-05T14:06:09.252Z,15.91
2022-11-05T14:08:46.054Z,15.75
2022-11-05T14:11:42.317Z,16.22
2022-11-05T14:14:26.650Z,15.95
2022-11-05T14:17:08.104Z,16.03
2022-11-05T14:20:06.601Z,15.49
2022-11-05T14:22:42.562Z,15.52
2022-11-05T14:25:18.297Z,15.52
2022-11-05T14:27:53.518Z,15.37
2022-11-05T14:30:46.962Z,15.72
2022-11-05T14:33:25.528Z,15.91
2022-11-05T14:36:20.623Z,15.83
2022-11-05T14:39:12.198Z,15.56
2022-11-05T14:42:11.094Z,15.22
2022-11-05T14:44:59.653Z,15.10
2022-11-05T14:47:38.042Z,15.21
2022-11-05T14:50:20.898Z,15.35
2022-11-05T14:52:57.757Z,15.50
2022-11-05T14:55:36.406Z,14.88
2022-11-05T14:58:30.762Z,15.26
2022-11-05T15:01:30.239Z,15.07
2022-11-05T15:04:17.497Z,15.46
2022-11-05T15:07:05.963Z,15.40
2022-11-05T15:09:50.619Z,15.17
2022-11-05T15:13:04.835Z,15.55
2022-11-05T15:15:44.814Z,15.39
2022-11-05T15:18:35.622Z,15.59
2022-11-05T15:21:13.619Z,15.49
2022-11-05T15:23:50.338Z,15.74
2022-11-05T15:26:59.226Z,15.36
2022-11-05T15:29:33.846Z,15.48
2022-11-05T15:32:12.277Z,15.69
2022-11-05T15:34:53.795Z,15.47
2022-11-05T15:37:27.995Z,15.67
2022-11-05T15:40:00.527Z,15.59
2022-11-05T15:42:32.885Z,15.13
2022-11-05T15:45:17.872Z,14.88
2022-11-05T15:47:50.185Z,15.04
2022-11-05T15:50:22.780Z,15.20
2022-11-05T15:53:04.832Z,15.00
2022-11-05T15:56:02.150Z,14.81
2022-11-05T15:58:41.330Z,15.08
2022-11-05T16:01:36.987Z,15.26
2022-11-05T16:04:16.361Z,15.35
2022-11-05T16:06:53.020Z,15.29
2022-11-05T16:09:31.099Z,15.16
2022-11-05T16:12:32.126Z,15.33
2022-11-05T16:15:29.386Z,15.33
2022-11-05T16:18:01.887Z,15.06
2022-11-05T16:20:38.504Z,14.92
2022-11-05T16:23:25.330Z,15.07
2022-11-05T16:25:57.776Z,14.85
2022-11-05T16:28:31.083Z,14.78
2022-11-05T16:31:06.348Z,14.98
2022-11-05T16:33:46.230Z,14.55
2022-11-05T16:36:18.990Z,14.26
2022-11-05T16:38:51.842Z,14.43
2022-11-05T16:41:26.143Z,14.52
2022-11-05T16:44:00.835Z,14.68
2022-11-05T16:46:34.188Z,14.49
2022-11-05T16:49:06.538Z,14.59
2022-11-05T16:51:39.366Z,14.34
2022-11-05T16:54:11.917Z,14.46
2022-11-05T16:56:45.307Z,14.24
2022-11-05T16:59:17.660Z,13.67
2022-11-05T17:01:55.485Z,13.77
2022-11-05T17:04:28.202Z,13.33
2022-11-05T17:07:00.544Z,13.13
2022-11-05T17:09:32.980Z,12.95
2022-11-05T17:12:05.596Z,12.72
2022-11-05T17:14:38.097Z,12.63
2022-11-05T17:17:11.320Z,12.21
2022-11-05T17:19:47.042Z,11.98
2022-11-05T17:22:19.304Z,11.80
2022-11-05T17:24:51.634Z,11.71
2022-11-05T17:27:23.938Z,11.87
2022-11-05T17:29:56.247Z,11.69
2022-11-05T17:32:28.660Z,11.27
2022-11-05T17:35:01.030Z,11.36
2022-11-05T17:37:33.857Z,11.08
2022-11-05T17:40:08.756Z,11.32
